createdAt,value
2022-12-31T00:01:34.989Z,99454.50
2022-12-31T00:04:03.654Z,99450.25
2022-12-31T00:06:35.829Z,99438.94
2022-12-31T00:09:07.086Z,99453.13
2022-12-31T00:11:36.820Z,99457.25
2022-12-31T00:14:05.756Z,99478.34
2022-12-31T00:16:37.884Z,99474.69
2022-12-31T00:19:08.358Z,99479.63
2022-12-31T00:21:37.558Z,99477.13
2022-12-31T00:24:07.642Z,99489.06
2022-12-31T00:26:36.846Z,99501.75
2022-12-31T00:29:06.632Z,99503.78
2022-12-31T00:31:38.904Z,99503.34
2022-12-31T00:34:07.707Z,99507.25
2022-12-31T00:36:42.558Z,99503.56
2022-12-31T00:39:12.057Z,99508.91
2022-12-31T00:41:40.459Z,99522.84
2022-12-31T00:44:09.041Z,99515.44
2022-12-31T00:49:05.175Z,99514.81
2022-12-31T00:51:33.655Z,99519.97
2022-12-31T00:54:02.303Z,99527.94
2022-12-31T00:56:32.231Z,99518.75
2022-12-31T00:59:02.132Z,99527.75
2022-12-31T01:01:34.382Z,99521.41
2022-12-31T01:04:13.373Z,99515.47
2022-12-31T01:06:42.476Z,99531.69
2022-12-31T01:09:12.391Z,99535.75
2022-12-31T01:11:40.704Z,99532.03
2022-12-31T01:14:16.371Z,99539.19
2022-12-31T01:16:49.128Z,99546.97
2022-12-31T01:19:27.778Z,99551.06
2022-12-31T01:21:56.935Z,99564.44
2022-12-31T01:24:25.836Z,99560.31
2022-12-31T01:26:57.662Z,99563.84
2022-12-31T01:29:26.451Z,99568.00
2022-12-31T01:31:54.873Z,99564.53
2022-12-31T01:34:23.460Z,99567.78
2022-12-31T01:36:51.848Z,99580.09
2022-12-31T01:39:20.429Z,99574.56
2022-12-31T01:41:49.075Z,99580.53
2022-12-31T01:44:37.358Z,99566.59
2022-12-31T01:47:14.221Z,99576.44
2022-12-31T01:49:55.802Z,99569.97
2022-12-31T01:52:36.886Z,99575.28
2022-12-31T01:55:29.918Z,99570.34
2022-12-31T01:58:12.986Z,99565.84
2022-12-31T02:00:41.548Z,99555.59
2022-12-31T02:03:10.497Z,99538.75
2022-12-31T02:05:44.899Z,99533.09
2022-12-31T02:08:14.060Z,99546.22
2022-12-31T02:10:42.243Z,99545.00
2022-12-31T02:13:10.851Z,99553.59
2022-12-31T02:16:03.606Z,99565.25
2022-12-31T02:18:43.292Z,99567.06
2022-12-31T02:21:17.205Z,99566.91
2022-12-31T02:24:23.911Z,99567.06
2022-12-31T02:27:11.694Z,99560.47
2022-12-31T02:30:06.596Z,99559.28
2022-12-31T02:33:02.941Z,99558.28
2022-12-31T02:35:46.484Z,99564.84
2022-12-31T02:38:36.867Z,99555.63
2022-12-31T02:41:05.400Z,99554.00
2022-12-31T02:43:33.478Z,99561.59
2022-12-31T02:46:25.039Z,99572.72
2022-12-31T02:49:25.584Z,99562.72
2022-12-31T02:52:14.090Z,99565.44
2022-12-31T02:55:03.870Z,99555.84
2022-12-31T02:57:56.469Z,99553.56
2022-12-31T03:00:42.923Z,99553.19
2022-12-31T03:03:12.887Z,99545.00
2022-12-31T03:05:44.707Z,99547.25
2022-12-31T03:08:13.208Z,99548.09
2022-12-31T03:10:42.741Z,99545.16
2022-12-31T03:13:09.965Z,99538.22
2022-12-31T03:15:38.977Z,99537.38
2022-12-31T03:18:17.796Z,99536.75
2022-12-31T03:21:04.390Z,99529.97
2022-12-31T03:23:38.835Z,99542.28
2022-12-31T03:26:10.017Z,99541.50
2022-12-31T03:28:40.822Z,99536.56
2022-12-31T03:31:09.768Z,99537.19
2022-12-31T03:33:41.616Z,99550.97
2022-12-31T03:36:15.640Z,99533.28
2022-12-31T03:38:47.381Z,99536.38
2022-12-31T03:41:17.905Z,99522.03
2022-12-31T03:43:46.473Z,99517.53
2022-12-31T03:46:14.981Z,99516.28
2022-12-31T03:48:43.498Z,99512.41
2022-12-31T03:51:11.523Z,99500.69
2022-12-31T03:53:39.566Z,99507.47
2022-12-31T03:56:07.976Z,99506.88
2022-12-31T03:58:36.381Z,99497.84
2022-12-31T04:01:05.146Z,99497.84
2022-12-31T04:03:33.713Z,99496.84
2022-12-31T04:06:02.163Z,99485.97
2022-12-31T04:08:30.300Z,99485.97
2022-12-31T04:10:58.705Z,99485.31
2022-12-31T04:13:26.762Z,99480.38
2022-12-31T04:15:55.514Z,99467.44
2022-12-31T04:18:24.025Z,99455.13
2022-12-31T04:20:52.217Z,99456.16
2022-12-31T04:23:20.956Z,99469.09
2022-12-31T04:25:49.375Z,99478.13
2022-12-31T04:28:17.888Z,99478.38
2022-12-31T04:30:46.375Z,99473.41
2022-12-31T04:33:14.395Z,99480.41
2022-12-31T04:35:42.939Z,99483.47
2022-12-31T04:38:11.019Z,99488.41
2022-12-31T04:40:59.824Z,99483.72
2022-12-31T04:43:27.943Z,99492.75
2022-12-31T04:45:55.983Z,99496.66
2022-12-31T04:48:24.408Z,99495.81
2022-12-31T04:50:53.239Z,99495.00
2022-12-31T04:53:21.304Z,99491.91
2022-12-31T04:55:49.756Z,99488.59
2022-12-31T04:58:18.040Z,99486.13
2022-12-31T05:00:49.871Z,99489.25
2022-12-31T05:03:19.739Z,99490.06
2022-12-31T05:05:50.009Z,99496.25
2022-12-31T05:08:19.793Z,99494.16
2022-12-31T05:10:50.919Z,99492.94
2022-12-31T05:13:19.361Z,99489.84
2022-12-31T05:15:48.345Z,99502.63
2022-12-31T05:18:16.881Z,99508.38
2022-12-31T05:20:45.385Z,99503.84
2022-12-31T05:23:14.747Z,99494.75
2022-12-31T05:25:44.842Z,99503.00
2022-12-31T05:28:13.361Z,99499.09
2022-12-31T05:30:41.813Z,99475.00
2022-12-31T05:33:10.505Z,99482.38
2022-12-31T05:35:38.808Z,99478.06
2022-12-31T05:38:07.368Z,99469.63
2022-12-31T05:40:35.847Z,99480.09
2022-12-31T05:43:04.043Z,99471.03
2022-12-31T05:45:32.162Z,99485.84
2022-12-31T05:48:00.829Z,99477.81
2022-12-31T05:50:29.005Z,99477.00
2022-12-31T05:52:57.459Z,99472.84
2022-12-31T05:55:26.771Z,99473.63
2022-12-31T05:57:55.272Z,99480.44
2022-12-31T06:00:23.638Z,99481.06
2022-12-31T06:02:51.755Z,99468.50
2022-12-31T06:05:25.930Z,99473.47
2022-12-31T06:07:55.043Z,99474.22
2022-12-31T06:10:23.514Z,99458.81
2022-12-31T06:12:52.025Z,99453.88
2022-12-31T06:15:20.189Z,99456.31
2022-12-31T06:17:48.710Z,99466.19
2022-12-31T06:20:16.973Z,99467.19
2022-12-31T06:22:45.066Z,99472.97
2022-12-31T06:25:13.511Z,99470.31
2022-12-31T06:27:42.014Z,99480.19
2022-12-31T06:30:12.300Z,99470.69
2022-12-31T06:32:40.922Z,99481.38
2022-12-31T06:35:09.810Z,99475.56
2022-12-31T06:37:38.330Z,99479.06
2022-12-31T06:40:07.438Z,99476.63
2022-12-31T06:42:35.900Z,99481.50
2022-12-31T06:45:04.645Z,99475.97
2022-12-31T06:47:33.073Z,99478.97
2022-12-31T06:50:01.551Z,99480.19
2022-12-31T06:52:30.530Z,99489.88
2022-12-31T06:54:59.358Z,99480.81
2022-12-31T06:57:28.269Z,99478.09
2022-12-31T06:59:57.133Z,99476.63
2022-12-31T07:02:55.622Z,99471.22
2022-12-31T07:05:42.660Z,99484.25
2022-12-31T07:08:51.154Z,99495.13
2022-12-31T07:11:31.693Z,99504.63
2022-12-31T07:14:33.864Z,99504.19
2022-12-31T07:17:08.251Z,99499.19
2022-12-31T07:20:07.852Z,99502.03
2022-12-31T07:22:36.635Z,99509.81
2022-12-31T07:25:06.739Z,99514.34
2022-12-31T07:27:43.933Z,99517.22
2022-12-31T07:30:54.497Z,99519.28
2022-12-31T07:34:16.824Z,99528.88
2022-12-31T07:37:14.521Z,99538.19
2022-12-31T07:40:21.019Z,99538.00
2022-12-31T07:43:15.380Z,99540.47
2022-12-31T07:46:09.079Z,99539.75
2022-12-31T07:48:37.517Z,99551.75
2022-12-31T07:51:06.328Z,99560.56
2022-12-31T07:53:34.977Z,99552.13
2022-12-31T07:56:06.736Z,99555.34
2022-12-31T07:58:59.329Z,99554.56
2022-12-31T08:02:18.835Z,99557.59
2022-12-31T08:05:11.507Z,99561.50
2022-12-31T08:08:30.810Z,99562.50
2022-12-31T08:11:02.728Z,99570.78
2022-12-31T08:13:31.897Z,99568.72
2022-12-31T08:16:02.192Z,99575.13
2022-12-31T08:18:30.928Z,99575.88
2022-12-31T08:21:23.624Z,99564.34
2022-12-31T08:24:15.030Z,99569.22
2022-12-31T08:26:52.966Z,99571.91
2022-12-31T08:30:01.682Z,99582.41
2022-12-31T08:33:04.609Z,99580.63
2022-12-31T08:36:10.589Z,99584.59
2022-12-31T08:38:42.554Z,99590.56
2022-12-31T08:41:43.083Z,99596.81
2022-12-31T08:45:01.790Z,99594.13
2022-12-31T08:47:59.812Z,99597.06
2022-12-31T08:50:29.365Z,99595.44
2022-12-31T08:52:57.913Z,99589.69
2022-12-31T08:55:26.470Z,99595.66
2022-12-31T08:58:31.883Z,99598.94
2022-12-31T09:01:00.793Z,99604.69
2022-12-31T09:03:57.572Z,99605.50
2022-12-31T09:06:43.158Z,99589.63
2022-12-31T09:10:00.291Z,99593.06
2022-12-31T09:12:39.741Z,99586.25
2022-12-31T09:15:23.147Z,99598.13
2022-12-31T09:17:52.783Z,99603.59
2022-12-31T09:20:42.473Z,99604.22
2022-12-31T09:23:13.336Z,99598.03
2022-12-31T09:25:58.834Z,99590.38
2022-12-31T09:28:50.642Z,99603.94
2022-12-31T09:32:00.419Z,99603.94
2022-12-31T09:34:51.937Z,99606.47
2022-12-31T09:37:30.881Z,99608.03
2022-12-31T09:40:25.185Z,99608.41
2022-12-31T09:42:58.816Z,99602.84
2022-12-31T09:46:27.333Z,99596.63
2022-12-31T09:49:32.031Z,99603.16
2022-12-31T09:52:37.014Z,99608.66
2022-12-31T09:55:33.899Z,99598.06
2022-12-31T09:58:19.701Z,99596.56
2022-12-31T10:00:56.865Z,99593.22
2022-12-31T10:04:05.019Z,99591.03
2022-12-31T10:06:36.996Z,99592.81
2022-12-31T10:09:38.511Z,99596.13
2022-12-31T10:12:25.879Z,99591.25
2022-12-31T10:15:41.466Z,99585.75
2022-12-31T10:18:57.359Z,99591.91
2022-12-31T10:21:55.895Z,99580.78
2022-12-31T10:24:38.963Z,99602.41
2022-12-31T10:27:22.987Z,99607.00
2022-12-31T10:30:01.983Z,99590.19
2022-12-31T10:32:43.693Z,99581.06
2022-12-31T10:35:15.125Z,99602.03
2022-12-31T10:38:06.520Z,99587.09
2022-12-31T10:41:01.523Z,99603.16
2022-12-31T10:44:08.359Z,99608.91
2022-12-31T10:47:13.904Z,99606.13
2022-12-31T10:50:12.310Z,99609.88
2022-12-31T10:53:19.213Z,99605.94
2022-12-31T10:56:06.169Z,99614.25
2022-12-31T10:58:49.386Z,99625.88
2022-12-31T11:01:35.188Z,99624.13
2022-12-31T11:04:37.104Z,99632.66
2022-12-31T11:07:24.267Z,99631.63
2022-12-31T11:09:55.478Z,99621.53
2022-12-31T11:13:00.211Z,99625.28
2022-12-31T11:15:40.591Z,99631.72
2022-12-31T11:18:36.803Z,99639.44
2022-12-31T11:21:10.404Z,99643.72
2022-12-31T11:24:23.029Z,99639.47
2022-12-31T11:27:02.968Z,99641.81
2022-12-31T11:29:57.977Z,99639.47
2022-12-31T11:32:56.323Z,99652.25
2022-12-31T11:35:57.279Z,99648.66
2022-12-31T11:38:39.888Z,99657.09
2022-12-31T11:41:23.396Z,99651.91
2022-12-31T11:44:04.773Z,99644.47
2022-12-31T11:47:13.849Z,99643.84
2022-12-31T11:50:00.546Z,99646.91
2022-12-31T11:52:46.325Z,99649.84
2022-12-31T11:55:40.367Z,99650.09
2022-12-31T11:58:20.447Z,99653.47
2022-12-31T12:01:17.384Z,99662.69
2022-12-31T12:03:46.520Z,99659.63
2022-12-31T12:06:18.343Z,99659.28
2022-12-31T12:08:47.699Z,99635.97
2022-12-31T12:11:25.409Z,99645.09
2022-12-31T12:13:54.008Z,99631.66
2022-12-31T12:16:24.519Z,99635.53
2022-12-31T12:19:15.820Z,99639.28
2022-12-31T12:21:52.004Z,99633.13
2022-12-31T12:24:38.919Z,99627.84
2022-12-31T12:27:18.435Z,99635.56
2022-12-31T12:29:47.409Z,99646.03
2022-12-31T12:32:20.908Z,99653.38
2022-12-31T12:34:50.345Z,99655.28
2022-12-31T12:37:35.536Z,99666.97
2022-12-31T12:40:29.774Z,99674.81
2022-12-31T12:43:02.856Z,99669.19
2022-12-31T12:45:51.487Z,99676.94
2022-12-31T12:48:42.439Z,99690.38
2022-12-31T12:51:29.956Z,99677.41
2022-12-31T12:54:19.200Z,99672.22
2022-12-31T12:57:17.285Z,99672.38
2022-12-31T12:59:45.751Z,99682.09
2022-12-31T13:03:03.219Z,99684.78
2022-12-31T13:05:54.709Z,99670.16
2022-12-31T13:08:42.016Z,99666.06
2022-12-31T13:11:37.817Z,99640.84
2022-12-31T13:14:06.402Z,99638.88
2022-12-31T13:16:48.498Z,99636.03
2022-12-31T13:19:43.111Z,99636.50
2022-12-31T13:22:39.141Z,99636.66
2022-12-31T13:25:53.807Z,99635.47
2022-12-31T13:28:25.171Z,99646.06
2022-12-31T13:31:06.852Z,99640.69
2022-12-31T13:33:42.171Z,99656.72
2022-12-31T13:36:23.387Z,99666.53
2022-12-31T13:38:55.896Z,99677.41
2022-12-31T13:41:37.800Z,99676.84
2022-12-31T13:44:25.965Z,99696.69
2022-12-31T13:46:57.929Z,99694.94
2022-12-31T13:49:47.068Z,99692.69
2022-12-31T13:52:26.641Z,99701.59
2022-12-31T13:55:24.027Z,99705.56
2022-12-31T13:58:24.527Z,99706.34
2022-12-31T14:01:07.051Z,99697.69
2022-12-31T14:04:50.783Z,99715.50
2022-12-31T14:07:43.650Z,99725.88
2022-12-31T14:10:16.716Z,99738.03
2022-12-31T14:12:59.889Z,99744.09
2022-12-31T14:15:39.211Z,99748.66
2022-12-31T14:18:34.361Z,99748.59
2022-12-31T14:21:13.491Z,99744.84
2022-12-31T14:24:05.542Z,99742.84
2022-12-31T14:26:42.167Z,99746.84
2022-12-31T14:29:23.007Z,99755.31
2022-12-31T14:31:51.786Z,99748.75
2022-12-31T14:34:27.577Z,99753.75
2022-12-31T14:37:02.584Z,99752.31
2022-12-31T14:39:52.556Z,99754.41
2022-12-31T14:43:10.364Z,99754.84
2022-12-31T14:46:02.675Z,99753.41
2022-12-31T14:48:57.661Z,99757.59
2022-12-31T14:51:31.261Z,99748.56
2022-12-31T14:53:59.833Z,99748.50
2022-12-31T14:56:28.341Z,99750.50
2022-12-31T14:59:02.529Z,99736.47
2022-12-31T15:01:32.204Z,99737.88
2022-12-31T15:04:00.873Z,99729.69
2022-12-31T15:06:56.089Z,99728.69
2022-12-31T15:09:45.797Z,99733.84
2022-12-31T15:12:28.736Z,99737.13
2022-12-31T15:15:06.131Z,99749.97
2022-12-31T15:18:08.411Z,99751.38
2022-12-31T15:21:10.348Z,99760.22
2022-12-31T15:23:42.294Z,99763.75
2022-12-31T15:26:31.261Z,99759.28
2022-12-31T15:29:24.879Z,99766.97
2022-12-31T15:31:53.651Z,99774.88
2022-12-31T15:34:29.544Z,99772.94
2022-12-31T15:37:02.509Z,99781.47
2022-12-31T15:39:33.562Z,99771.22
2022-12-31T15:42:36.831Z,99774.56
2022-12-31T15:44:58.101Z,99766.28
2022-12-31T15:47:38.907Z,99783.66
2022-12-31T15:50:21.780Z,99777.69
2022-12-31T15:53:05.478Z,99774.41
2022-12-31T15:55:51.091Z,99772.75
2022-12-31T15:58:25.123Z,99758.72
2022-12-31T16:01:23.410Z,99776.03
2022-12-31T16:04:33.144Z,99786.72
2022-12-31T16:07:05.345Z,99775.59
2022-12-31T16:09:36.843Z,99782.41
2022-12-31T16:12:18.934Z,99782.72
2022-12-31T16:14:57.697Z,99772.63
2022-12-31T16:17:32.814Z,99790.06
2022-12-31T16:20:22.988Z,99792.53
2022-12-31T16:23:00.185Z,99801.66
2022-12-31T16:25:32.344Z,99798.09
2022-12-31T16:28:04.425Z,99793.44
2022-12-31T16:30:35.909Z,99786.44
2022-12-31T16:33:07.377Z,99793.91
2022-12-31T16:35:38.879Z,99788.91
2022-12-31T16:38:16.655Z,99788.91
2022-12-31T16:41:01.923Z,99796.56
2022-12-31T16:43:43.962Z,99789.59
2022-12-31T16:46:28.853Z,99801.16
2022-12-31T16:49:14.061Z,99793.50
2022-12-31T16:51:42.553Z,99802.84
2022-12-31T16:54:27.228Z,99818.81
2022-12-31T16:56:56.174Z,99818.81
2022-12-31T17:00:00.390Z,99804.75
2022-12-31T17:03:15.587Z,99811.56
2022-12-31T17:06:16.696Z,99809.31
2022-12-31T17:08:56.029Z,99813.88
2022-12-31T17:11:39.391Z,99818.56
2022-12-31T17:14:07.833Z,99829.75
2022-12-31T17:16:40.371Z,99822.91
2022-12-31T17:19:11.729Z,99825.84
2022-12-31T17:21:48.881Z,99820.59
2022-12-31T17:24:17.585Z,99822.31
2022-12-31T17:26:46.476Z,99821.88
2022-12-31T17:29:26.228Z,99818.13
2022-12-31T17:32:28.778Z,99823.34
2022-12-31T17:34:57.357Z,99807.63
2022-12-31T17:37:29.994Z,99807.66
2022-12-31T17:40:32.202Z,99812.88
2022-12-31T17:42:50.648Z,99820.88
2022-12-31T17:45:23.452Z,99815.88
2022-12-31T17:47:55.692Z,99814.47
2022-12-31T17:50:27.781Z,99809.91
2022-12-31T17:53:09.860Z,99805.47
2022-12-31T17:55:38.668Z,99804.22
2022-12-31T17:58:08.105Z,99807.34
2022-12-31T18:00:38.665Z,99806.69
2022-12-31T18:03:07.250Z,99811.44
2022-12-31T18:05:36.866Z,99803.03
2022-12-31T18:08:05.698Z,99814.94
2022-12-31T18:10:38.834Z,99820.19
2022-12-31T18:13:15.479Z,99819.34
2022-12-31T18:15:43.936Z,99818.56
2022-12-31T18:18:32.709Z,99813.34
2022-12-31T18:21:34.542Z,99807.59
2022-12-31T18:26:34.629Z,99803.56
2022-12-31T18:29:16.884Z,99803.03
2022-12-31T18:31:49.004Z,99813.38
2022-12-31T18:34:18.403Z,99815.03
2022-12-31T18:36:47.064Z,99802.88
2022-12-31T18:39:15.587Z,99807.13
2022-12-31T18:41:47.006Z,99806.34
2022-12-31T18:44:16.830Z,99803.06
2022-12-31T18:46:45.254Z,99800.34
2022-12-31T18:49:14.052Z,99788.78
2022-12-31T18:51:42.569Z,99792.91
2022-12-31T18:54:13.926Z,99794.28
2022-12-31T18:56:47.178Z,99797.13
2022-12-31T18:59:16.906Z,99788.25
2022-12-31T19:01:45.465Z,99805.34
2022-12-31T19:04:27.603Z,99806.41
2022-12-31T19:06:57.215Z,99812.31
2022-12-31T19:12:15.906Z,99818.53
2022-12-31T19:14:45.567Z,99809.44
2022-12-31T19:17:14.329Z,99806.91
2022-12-31T19:19:42.799Z,99803.34
2022-12-31T19:22:16.492Z,99800.66
2022-12-31T19:24:44.943Z,99800.06
2022-12-31T19:27:13.542Z,99803.63
2022-12-31T19:29:42.245Z,99800.69
2022-12-31T19:32:10.747Z,99801.56
2022-12-31T19:34:39.314Z,99796.44
2022-12-31T19:37:07.801Z,99803.63
2022-12-31T19:39:36.257Z,99797.63
2022-12-31T19:42:04.863Z,99795.72
2022-12-31T19:44:33.344Z,99800.00
2022-12-31T19:47:01.858Z,99787.00
2022-12-31T19:49:30.402Z,99800.38
2022-12-31T19:51:59.063Z,99795.28
2022-12-31T19:54:27.609Z,99794.25
2022-12-31T19:56:56.078Z,99784.09
2022-12-31T19:59:24.540Z,99792.16
2022-12-31T20:01:53.112Z,99797.75
2022-12-31T20:04:21.689Z,99799.19
2022-12-31T20:06:50.226Z,99797.06
2022-12-31T20:09:18.663Z,99802.25
2022-12-31T20:11:47.232Z,99797.31
2022-12-31T20:14:15.850Z,99796.47
2022-12-31T20:16:44.512Z,99799.31
2022-12-31T20:19:13.017Z,99793.09
2022-12-31T20:21:41.991Z,99791.00
2022-12-31T20:24:10.519Z,99801.16
2022-12-31T20:26:39.087Z,99794.13
2022-12-31T20:29:07.496Z,99795.16
2022-12-31T20:31:36.035Z,99792.78
2022-12-31T20:34:04.481Z,99793.22
2022-12-31T20:36:32.642Z,99794.84
2022-12-31T20:39:01.144Z,99798.59
2022-12-31T20:41:32.084Z,99793.81
2022-12-31T20:44:01.342Z,99797.69
2022-12-31T20:46:31.811Z,99806.94
2022-12-31T20:49:02.587Z,99800.53
2022-12-31T20:51:33.773Z,99804.63
2022-12-31T20:54:06.165Z,99810.44
2022-12-31T20:56:38.996Z,99808.84
2022-12-31T20:59:08.982Z,99823.94
2022-12-31T21:02:11.769Z,99825.22
2022-12-31T21:04:27.216Z,99830.38
2022-12-31T21:06:55.828Z,99837.44
2022-12-31T21:09:24.374Z,99840.75
2022-12-31T21:12:10.312Z,99849.78
2022-12-31T21:14:44.509Z,99843.47
2022-12-31T21:17:13.447Z,99853.81
2022-12-31T21:19:41.949Z,99847.00
2022-12-31T21:22:10.486Z,99850.91
2022-12-31T21:24:39.445Z,99849.47
2022-12-31T21:27:08.440Z,99858.63
2022-12-31T21:29:55.722Z,99861.31
2022-12-31T21:32:26.219Z,99860.09
2022-12-31T21:35:31.180Z,99862.13
2022-12-31T21:37:59.324Z,99862.16
2022-12-31T21:40:29.315Z,99858.41
2022-12-31T21:42:58.022Z,99854.94
2022-12-31T21:45:26.319Z,99847.28
2022-12-31T21:48:12.242Z,99848.69
2022-12-31T21:50:40.658Z,99845.84
2022-12-31T21:53:09.203Z,99844.59
2022-12-31T21:55:57.315Z,99849.97
2022-12-31T21:58:27.639Z,99851.63
2022-12-31T22:01:15.574Z,99849.97
2022-12-31T22:03:45.632Z,99850.78
2022-12-31T22:06:20.677Z,99855.13
2022-12-31T22:08:52.877Z,99855.09
2022-12-31T22:11:23.323Z,99855.78
2022-12-31T22:13:52.707Z,99867.38
2022-12-31T22:16:23.366Z,99876.44
2022-12-31T22:18:51.981Z,99871.44
2022-12-31T22:21:25.446Z,99871.06
2022-12-31T22:23:56.487Z,99873.16
2022-12-31T22:26:28.849Z,99871.69
2022-12-31T22:28:59.604Z,99872.31
2022-12-31T22:31:31.121Z,99888.81
2022-12-31T22:34:00.152Z,99897.03
2022-12-31T22:36:28.710Z,99895.41
2022-12-31T22:38:58.749Z,99897.09
2022-12-31T22:41:29.172Z,99895.28
2022-12-31T22:44:04.216Z,99901.72
2022-12-31T22:46:34.152Z,99900.94
2022-12-31T22:49:06.140Z,99897.00
2022-12-31T22:51:56.360Z,99900.09
2022-12-31T22:54:23.467Z,99903.41
2022-12-31T22:56:52.050Z,99917.44
2022-12-31T22:59:20.509Z,99908.75
2022-12-31T23:01:49.655Z,99928.34
2022-12-31T23:04:18.514Z,99923.59
2022-12-31T23:06:47.379Z,99925.66
2022-12-31T23:09:35.856Z,99926.47
2022-12-31T23:12:06.963Z,99925.47
2022-12-31T23:14:53.303Z,99932.09
2022-12-31T23:17:45.095Z,99929.81
2022-12-31T23:20:38.562Z,99931.47
2022-12-31T23:23:12.932Z,99941.81
2022-12-31T23:25:48.294Z,99934.16
2022-12-31T23:28:21.297Z,99936.44
2022-12-31T23:30:51.291Z,99938.69
2022-12-31T23:33:23.732Z,99949.66
2022-12-31T23:35:52.586Z,99951.94
2022-12-31T23:38:21.126Z,99951.28
2022-12-31T23:40:49.711Z,99952.56
2022-12-31T23:43:23.563Z,99962.28
2022-12-31T23:45:52.658Z,99960.59
2022-12-31T23:48:21.102Z,99964.97
2022-12-31T23:50:54.458Z,99954.00
2022-12-31T23:53:26.701Z,99968.50
2022-12-31T23:55:55.461Z,99962.06
2022-12-31T23:58:24.007Z,99968.91
